createdAt,value
2017-12-31T00:01:43.031Z,5.40
2017-12-31T00:04:13.039Z,6.30
2017-12-31T00:06:43.415Z,4.30
2017-12-31T00:09:13.621Z,4.90
2017-12-31T00:11:43.706Z,5.27
2017-12-31T00:14:14.121Z,5.10
2017-12-31T00:16:45.158Z,5.27
2017-12-31T00:19:15.236Z,4.93
2017-12-31T00:21:46.538Z,4.63
2017-12-31T00:24:18.451Z,4.97
2017-12-31T00:26:48.498Z,5.20
2017-12-31T00:29:18.807Z,6.07
2017-12-31T00:31:49.010Z,5.13
2017-12-31T00:34:19.874Z,5.70
2017-12-31T00:36:50.507Z,6.30
2017-12-31T00:39:20.913Z,5.50
2017-12-31T00:41:51.187Z,4.67
2017-12-31T00:44:21.190Z,6.03
2017-12-31T00:46:51.659Z,5.10
2017-12-31T00:49:22.598Z,5.20
2017-12-31T00:51:53.399Z,5.97
2017-12-31T00:54:24.027Z,5.70
2017-12-31T00:56:54.123Z,4.80
2017-12-31T00:59:25.816Z,5.23
2017-12-31T01:01:55.780Z,5.80
2017-12-31T01:04:25.823Z,5.73
2017-12-31T01:06:56.347Z,5.60
2017-12-31T01:09:26.405Z,6.30
2017-12-31T01:11:56.678Z,5.43
2017-12-31T01:14:27.063Z,5.57
2017-12-31T01:16:57.994Z,5.83
2017-12-31T01:19:29.354Z,5.83
2017-12-31T01:21:59.992Z,5.50
2017-12-31T01:24:30.005Z,5.53
2017-12-31T01:27:00.361Z,5.30
2017-12-31T01:29:30.682Z,5.17
2017-12-31T01:32:01.942Z,5.03
2017-12-31T01:34:33.137Z,6.20
2017-12-31T01:37:03.595Z,5.40
2017-12-31T01:39:33.550Z,5.30
2017-12-31T01:42:03.919Z,6.23
2017-12-31T01:44:34.287Z,4.43
2017-12-31T01:47:04.531Z,5.60
2017-12-31T01:49:34.678Z,5.53
2017-12-31T01:52:04.731Z,5.33
2017-12-31T01:54:35.374Z,4.80
2017-12-31T01:57:06.701Z,5.30
2017-12-31T01:59:36.691Z,5.40
2017-12-31T02:02:07.721Z,5.47
2017-12-31T02:04:37.915Z,4.40
2017-12-31T02:07:08.931Z,4.50
2017-12-31T02:09:39.423Z,5.90
2017-12-31T02:12:09.667Z,5.50
2017-12-31T02:14:39.996Z,5.43
2017-12-31T02:17:11.549Z,4.53
2017-12-31T02:19:42.633Z,5.33
2017-12-31T02:22:13.998Z,4.30
2017-12-31T02:24:45.313Z,5.00
2017-12-31T02:27:17.065Z,5.23
2017-12-31T02:29:47.082Z,4.50
2017-12-31T02:32:17.423Z,4.70
2017-12-31T02:34:48.083Z,5.27
2017-12-31T02:37:18.106Z,5.07
2017-12-31T02:39:48.480Z,5.10
2017-12-31T02:42:19.572Z,6.50
2017-12-31T02:44:49.987Z,4.73
2017-12-31T02:47:20.253Z,6.27
2017-12-31T02:49:50.683Z,5.50
2017-12-31T02:52:20.739Z,5.20
2017-12-31T02:54:51.931Z,6.20
2017-12-31T02:57:22.444Z,6.10
2017-12-31T02:59:52.575Z,5.67
2017-12-31T03:02:23.513Z,6.30
2017-12-31T03:04:53.860Z,6.27
2017-12-31T03:07:24.787Z,5.57
2017-12-31T03:09:54.924Z,5.63
2017-12-31T03:12:25.276Z,5.60
2017-12-31T03:14:55.795Z,5.50
2017-12-31T03:17:26.161Z,5.03
2017-12-31T03:19:56.199Z,4.10
2017-12-31T03:22:27.033Z,4.50
2017-12-31T03:24:57.678Z,4.43
2017-12-31T03:27:28.081Z,4.40
2017-12-31T03:29:59.975Z,4.27
2017-12-31T03:32:31.035Z,4.30
2017-12-31T03:35:01.456Z,4.37
2017-12-31T03:37:31.754Z,4.63
2017-12-31T03:40:01.939Z,4.27
2017-12-31T03:42:33.839Z,3.20
2017-12-31T03:45:04.338Z,3.67
2017-12-31T03:47:34.819Z,3.70
2017-12-31T03:50:05.418Z,3.40
2017-12-31T03:52:35.431Z,2.47
2017-12-31T03:55:05.943Z,4.00
2017-12-31T03:57:36.539Z,3.23
2017-12-31T04:00:07.603Z,3.30
2017-12-31T04:02:38.123Z,4.27
2017-12-31T04:05:08.663Z,3.70
2017-12-31T04:07:39.121Z,3.77
2017-12-31T04:10:10.068Z,3.53
2017-12-31T04:12:40.344Z,3.60
2017-12-31T04:15:11.738Z,3.80
2017-12-31T04:17:42.067Z,4.30
2017-12-31T04:20:12.234Z,3.70
2017-12-31T04:22:42.561Z,3.70
2017-12-31T04:25:14.258Z,4.20
2017-12-31T04:27:44.848Z,4.40
2017-12-31T04:30:14.908Z,4.50
2017-12-31T04:32:45.902Z,5.07
2017-12-31T04:35:17.274Z,4.70
2017-12-31T04:37:47.575Z,4.80
2017-12-31T04:40:18.451Z,5.33
2017-12-31T04:42:49.139Z,4.33
2017-12-31T04:45:20.474Z,4.40
2017-12-31T04:47:50.988Z,4.17
2017-12-31T04:50:21.935Z,5.07
2017-12-31T04:52:51.980Z,4.03
2017-12-31T04:55:22.298Z,4.13
2017-12-31T04:57:52.822Z,4.23
2017-12-31T05:00:23.988Z,3.80
2017-12-31T05:02:55.084Z,3.50
2017-12-31T05:05:25.592Z,3.30
2017-12-31T05:07:55.962Z,3.70
2017-12-31T05:10:26.998Z,3.77
2017-12-31T05:12:58.447Z,3.67
2017-12-31T05:15:28.985Z,4.20
2017-12-31T05:17:59.105Z,4.10
2017-12-31T05:20:30.066Z,3.80
2017-12-31T05:23:00.380Z,4.00
2017-12-31T05:25:30.679Z,3.70
2017-12-31T05:28:01.127Z,3.13
2017-12-31T05:30:31.876Z,3.00
2017-12-31T05:33:01.939Z,4.20
2017-12-31T05:35:33.212Z,3.03
2017-12-31T05:38:04.159Z,3.93
2017-12-31T05:40:34.471Z,3.53
2017-12-31T05:43:05.428Z,5.53
2017-12-31T05:45:36.139Z,4.20
2017-12-31T05:48:06.478Z,4.13
2017-12-31T05:50:36.616Z,4.13
2017-12-31T05:53:07.083Z,4.40
2017-12-31T05:55:37.645Z,5.10
2017-12-31T05:58:07.884Z,3.87
2017-12-31T06:00:38.089Z,3.87
2017-12-31T06:03:08.386Z,4.07
2017-12-31T06:05:39.211Z,4.70
2017-12-31T06:08:09.484Z,4.57
2017-12-31T06:10:39.796Z,3.73
2017-12-31T06:13:10.265Z,4.20
2017-12-31T06:15:40.931Z,3.97
2017-12-31T06:18:11.176Z,4.90
2017-12-31T06:20:41.660Z,5.17
2017-12-31T06:23:12.040Z,5.27
2017-12-31T06:25:42.356Z,5.70
2017-12-31T06:28:12.595Z,6.77
2017-12-31T06:33:17.643Z,6.97
2017-12-31T06:35:48.003Z,8.20
2017-12-31T06:38:19.236Z,8.40
2017-12-31T06:40:50.114Z,7.70
2017-12-31T06:43:21.183Z,8.80
2017-12-31T06:45:51.517Z,8.90
2017-12-31T06:48:21.492Z,8.70
2017-12-31T06:50:52.306Z,8.43
2017-12-31T06:53:22.845Z,8.90
2017-12-31T06:55:52.962Z,8.77
2017-12-31T06:58:23.275Z,9.70
2017-12-31T07:00:54.871Z,9.90
2017-12-31T07:03:25.119Z,10.13
2017-12-31T07:05:55.606Z,10.07
2017-12-31T07:08:26.513Z,8.80
2017-12-31T07:10:56.902Z,8.20
2017-12-31T07:13:27.255Z,8.43
2017-12-31T07:15:57.924Z,7.93
2017-12-31T07:18:28.496Z,7.33
2017-12-31T07:20:58.531Z,6.07
2017-12-31T07:23:28.563Z,5.10
2017-12-31T07:25:59.441Z,4.80
2017-12-31T07:28:29.498Z,4.30
2017-12-31T07:31:00.399Z,3.70
2017-12-31T07:33:31.436Z,3.50
2017-12-31T07:36:02.978Z,3.30
2017-12-31T07:38:33.933Z,3.00
2017-12-31T07:41:05.037Z,2.73
2017-12-31T07:43:35.208Z,2.67
2017-12-31T07:46:06.064Z,2.60
2017-12-31T07:48:36.246Z,2.60
2017-12-31T07:51:06.578Z,3.07
2017-12-31T07:53:37.250Z,3.27
2017-12-31T07:56:07.591Z,3.43
2017-12-31T07:58:37.683Z,3.27
2017-12-31T08:01:08.976Z,3.53
2017-12-31T08:03:39.845Z,3.50
2017-12-31T08:06:10.155Z,4.20
2017-12-31T08:08:40.885Z,3.50
2017-12-31T08:11:12.257Z,4.50
2017-12-31T08:13:43.119Z,4.10
2017-12-31T08:16:13.604Z,3.90
2017-12-31T08:18:43.944Z,3.90
2017-12-31T08:21:14.352Z,4.33
2017-12-31T08:23:45.418Z,4.60
2017-12-31T08:26:16.068Z,5.20
2017-12-31T08:28:46.367Z,5.20
2017-12-31T08:31:16.816Z,5.30
2017-12-31T08:33:47.416Z,6.53
2017-12-31T08:36:18.103Z,7.77
2017-12-31T08:38:48.425Z,6.67
2017-12-31T08:41:18.702Z,6.10
2017-12-31T08:43:49.377Z,7.27
2017-12-31T08:46:20.835Z,6.97
2017-12-31T08:48:51.340Z,7.07
2017-12-31T08:51:22.094Z,6.23
2017-12-31T08:53:52.196Z,6.83
2017-12-31T08:56:22.642Z,5.17
2017-12-31T08:58:53.586Z,5.80
2017-12-31T09:01:23.755Z,4.80
2017-12-31T09:03:54.922Z,4.80
2017-12-31T09:06:25.759Z,5.07
2017-12-31T09:08:56.134Z,5.10
2017-12-31T09:11:26.447Z,5.20
2017-12-31T09:13:57.290Z,4.30
2017-12-31T09:16:27.826Z,4.60
2017-12-31T09:18:58.395Z,4.90
2017-12-31T09:21:28.720Z,4.40
2017-12-31T09:23:59.278Z,4.70
2017-12-31T09:26:29.546Z,3.93
2017-12-31T09:28:59.878Z,5.07
2017-12-31T09:31:30.108Z,4.70
2017-12-31T09:36:37.618Z,5.00
2017-12-31T09:39:08.036Z,4.73
2017-12-31T09:41:39.241Z,5.03
2017-12-31T09:44:09.677Z,4.83
2017-12-31T09:46:40.407Z,4.20
2017-12-31T09:49:10.565Z,4.43
2017-12-31T09:51:40.697Z,4.33
2017-12-31T09:54:11.180Z,3.73
2017-12-31T09:56:41.687Z,3.90
2017-12-31T09:59:11.782Z,3.80
2017-12-31T10:01:42.715Z,4.30
2017-12-31T10:04:13.748Z,4.10
2017-12-31T10:06:43.974Z,3.30
2017-12-31T10:09:14.139Z,4.73
2017-12-31T10:11:44.650Z,3.67
2017-12-31T10:14:15.347Z,3.90
2017-12-31T10:16:46.551Z,3.80
2017-12-31T10:19:17.231Z,3.70
2017-12-31T10:21:48.903Z,3.53
2017-12-31T10:24:19.402Z,4.10
2017-12-31T10:26:49.568Z,3.57
2017-12-31T10:29:19.915Z,4.67
2017-12-31T10:31:50.856Z,4.20
2017-12-31T10:34:21.542Z,4.60
2017-12-31T10:36:52.678Z,4.40
2017-12-31T10:39:24.074Z,5.13
2017-12-31T10:41:54.895Z,4.70
2017-12-31T10:44:27.020Z,3.50
2017-12-31T10:46:58.119Z,4.20
2017-12-31T10:49:28.998Z,4.70
2017-12-31T10:51:59.792Z,4.17
2017-12-31T10:54:30.577Z,4.40
2017-12-31T10:57:01.473Z,4.53
2017-12-31T10:59:32.367Z,5.30
2017-12-31T11:02:03.685Z,5.30
2017-12-31T11:04:34.809Z,4.70
2017-12-31T11:07:06.308Z,4.97
2017-12-31T11:09:37.318Z,5.00
2017-12-31T11:12:07.959Z,4.97
2017-12-31T11:14:38.539Z,4.37
2017-12-31T11:17:09.471Z,3.83
2017-12-31T11:19:41.315Z,4.40
2017-12-31T11:22:11.871Z,3.80
2017-12-31T11:24:42.789Z,3.80
2017-12-31T11:27:13.362Z,3.73
2017-12-31T11:29:44.154Z,3.93
2017-12-31T11:32:16.597Z,3.97
2017-12-31T11:34:47.213Z,3.50
2017-12-31T11:37:17.739Z,3.80
2017-12-31T11:39:48.755Z,3.80
2017-12-31T11:42:19.304Z,3.47
2017-12-31T11:44:50.755Z,3.50
2017-12-31T11:47:21.726Z,3.00
2017-12-31T11:49:52.686Z,3.30
2017-12-31T11:52:24.430Z,2.67
2017-12-31T11:54:55.208Z,4.17
2017-12-31T11:57:27.703Z,2.80
2017-12-31T11:59:58.805Z,2.77
2017-12-31T12:02:29.815Z,2.53
2017-12-31T12:05:00.657Z,2.80
2017-12-31T12:07:31.674Z,2.47
2017-12-31T12:10:02.332Z,2.53
2017-12-31T12:12:33.025Z,2.63
2017-12-31T12:15:03.818Z,2.40
2017-12-31T12:17:34.472Z,2.60
2017-12-31T12:20:04.769Z,2.43
2017-12-31T12:22:36.237Z,2.90
2017-12-31T12:25:07.531Z,2.93
2017-12-31T12:27:38.267Z,2.73
2017-12-31T12:30:09.546Z,2.47
2017-12-31T12:32:41.083Z,2.60
2017-12-31T12:35:12.656Z,2.87
2017-12-31T12:37:44.336Z,2.90
2017-12-31T12:40:14.820Z,2.47
2017-12-31T12:42:47.845Z,3.10
2017-12-31T12:45:19.683Z,2.50
2017-12-31T12:47:50.347Z,2.63
2017-12-31T12:50:21.164Z,2.90
2017-12-31T12:52:51.881Z,2.47
2017-12-31T12:55:22.833Z,2.93
2017-12-31T12:57:53.863Z,3.20
2017-12-31T13:00:24.610Z,2.90
2017-12-31T13:02:55.498Z,2.40
2017-12-31T13:05:26.567Z,2.27
2017-12-31T13:07:57.176Z,2.17
2017-12-31T13:10:27.677Z,2.60
2017-12-31T13:12:58.222Z,2.07
2017-12-31T13:15:28.815Z,2.20
2017-12-31T13:17:59.398Z,2.77
2017-12-31T13:20:29.638Z,2.30
2017-12-31T13:23:00.293Z,2.07
2017-12-31T13:25:31.379Z,2.00
2017-12-31T13:28:02.570Z,1.93
2017-12-31T13:30:33.403Z,2.50
2017-12-31T13:33:04.125Z,2.57
2017-12-31T13:35:36.061Z,2.00
2017-12-31T13:38:06.530Z,2.07
2017-12-31T13:40:37.262Z,1.80
2017-12-31T13:43:08.401Z,2.07
2017-12-31T13:45:39.327Z,1.60
2017-12-31T13:48:12.513Z,2.10
2017-12-31T13:50:43.393Z,2.00
2017-12-31T13:53:14.571Z,2.00
2017-12-31T13:55:45.357Z,2.03
2017-12-31T13:58:16.370Z,2.20
2017-12-31T14:00:46.938Z,2.00
2017-12-31T14:03:17.512Z,1.80
2017-12-31T14:05:48.202Z,2.07
2017-12-31T14:08:18.765Z,2.40
2017-12-31T14:10:49.813Z,1.93
2017-12-31T14:13:21.667Z,2.40
2017-12-31T14:15:52.348Z,2.13
2017-12-31T14:18:23.093Z,2.00
2017-12-31T14:20:53.724Z,2.17
2017-12-31T14:23:24.436Z,2.17
2017-12-31T14:25:55.455Z,2.07
2017-12-31T14:28:26.238Z,2.73
2017-12-31T14:30:57.030Z,2.30
2017-12-31T14:33:28.577Z,1.73
2017-12-31T14:35:59.255Z,2.50
2017-12-31T14:38:29.763Z,2.27
2017-12-31T14:41:01.083Z,2.10
2017-12-31T14:43:32.929Z,2.10
2017-12-31T14:46:03.491Z,1.80
2017-12-31T14:48:35.062Z,2.10
2017-12-31T14:51:05.772Z,2.20
2017-12-31T14:53:37.042Z,2.00
2017-12-31T14:56:07.818Z,1.80
2017-12-31T14:58:38.721Z,2.07
2017-12-31T15:01:09.730Z,2.00
2017-12-31T15:03:40.493Z,2.27
2017-12-31T15:06:12.149Z,2.10
2017-12-31T15:08:42.675Z,2.37
2017-12-31T15:11:13.250Z,2.20
2017-12-31T15:13:44.274Z,2.40
2017-12-31T15:16:14.815Z,1.90
2017-12-31T15:18:45.704Z,1.90
2017-12-31T15:21:16.935Z,2.20
2017-12-31T15:23:48.345Z,2.23
2017-12-31T15:26:18.838Z,2.20
2017-12-31T15:28:48.984Z,2.00
2017-12-31T15:31:19.843Z,2.10
2017-12-31T15:33:50.833Z,2.07
2017-12-31T15:36:21.777Z,2.10
2017-12-31T15:38:52.699Z,2.20
2017-12-31T15:41:23.583Z,2.20
2017-12-31T15:43:54.636Z,2.50
2017-12-31T15:46:24.873Z,2.10
2017-12-31T15:48:55.926Z,2.00
2017-12-31T15:51:26.488Z,2.40
2017-12-31T15:53:56.677Z,2.40
2017-12-31T15:56:27.908Z,2.67
2017-12-31T15:58:58.196Z,2.27
2017-12-31T16:01:28.483Z,2.37
2017-12-31T16:03:59.380Z,2.10
2017-12-31T16:06:29.951Z,2.23
2017-12-31T16:09:00.272Z,2.80
2017-12-31T16:11:30.549Z,2.30
2017-12-31T16:14:02.032Z,2.47
2017-12-31T16:16:33.343Z,2.70
2017-12-31T16:19:03.757Z,2.70
2017-12-31T16:21:34.948Z,2.47
2017-12-31T16:24:05.980Z,2.87
2017-12-31T16:26:37.023Z,2.80
2017-12-31T16:29:08.569Z,3.03
2017-12-31T16:31:39.024Z,2.80
2017-12-31T16:34:09.395Z,3.27
2017-12-31T16:36:40.476Z,3.30
2017-12-31T16:39:10.884Z,3.20
2017-12-31T16:41:41.188Z,3.07
2017-12-31T16:44:11.660Z,3.33
2017-12-31T16:46:41.835Z,4.20
2017-12-31T16:49:12.000Z,3.00
2017-12-31T16:51:42.439Z,2.87
2017-12-31T16:54:12.971Z,2.50
2017-12-31T16:56:43.347Z,2.00
2017-12-31T16:59:13.992Z,2.53
2017-12-31T17:01:45.072Z,2.40
2017-12-31T17:04:15.239Z,2.50
2017-12-31T17:06:45.758Z,2.40
2017-12-31T17:09:16.852Z,2.07
2017-12-31T17:11:48.291Z,1.90
2017-12-31T17:14:19.290Z,2.10
2017-12-31T17:16:49.879Z,1.70
2017-12-31T17:19:22.083Z,2.17
2017-12-31T17:21:52.400Z,1.80
2017-12-31T17:24:22.603Z,1.90
2017-12-31T17:26:53.071Z,2.57
2017-12-31T17:29:23.393Z,2.17
2017-12-31T17:31:53.736Z,1.60
2017-12-31T17:34:24.713Z,3.10
2017-12-31T17:36:54.959Z,3.13
2017-12-31T17:39:25.098Z,1.93
2017-12-31T17:41:55.839Z,1.90
2017-12-31T17:44:26.773Z,2.07
2017-12-31T17:46:57.458Z,2.00
2017-12-31T17:49:27.955Z,2.00
2017-12-31T17:51:59.065Z,2.50
2017-12-31T17:54:30.084Z,3.40
2017-12-31T17:57:02.925Z,3.23
2017-12-31T17:59:33.990Z,2.43
2017-12-31T18:02:04.318Z,2.43
2017-12-31T18:04:35.196Z,2.70
2017-12-31T18:07:05.457Z,2.40
2017-12-31T18:09:35.680Z,2.70
2017-12-31T18:12:06.374Z,2.37
2017-12-31T18:14:36.597Z,2.10
2017-12-31T18:17:06.793Z,2.20
2017-12-31T18:19:37.052Z,2.20
2017-12-31T18:22:07.315Z,2.00
2017-12-31T18:24:37.439Z,2.17
2017-12-31T18:27:08.020Z,1.97
2017-12-31T18:29:38.352Z,2.10
2017-12-31T18:32:08.520Z,2.50
2017-12-31T18:34:38.569Z,2.80
2017-12-31T18:37:08.732Z,2.73
2017-12-31T18:39:39.621Z,3.03
2017-12-31T18:42:10.371Z,3.13
2017-12-31T18:44:40.489Z,2.37
2017-12-31T18:47:11.660Z,2.50
2017-12-31T18:49:42.726Z,2.13
2017-12-31T18:52:12.794Z,2.50
2017-12-31T18:54:43.017Z,3.40
2017-12-31T18:57:13.395Z,2.47
2017-12-31T18:59:43.594Z,3.17
2017-12-31T19:02:14.108Z,2.60
2017-12-31T19:04:45.199Z,2.73
2017-12-31T19:07:16.222Z,2.63
2017-12-31T19:09:46.602Z,2.23
2017-12-31T19:12:17.253Z,2.47
2017-12-31T19:14:48.257Z,2.87
2017-12-31T19:17:18.620Z,2.63
2017-12-31T19:19:49.713Z,2.33
2017-12-31T19:22:20.328Z,2.37
2017-12-31T19:24:50.572Z,2.20
2017-12-31T19:27:20.897Z,2.30
2017-12-31T19:29:51.371Z,9.60
2017-12-31T19:32:22.048Z,4.67
2017-12-31T19:34:52.303Z,3.07
2017-12-31T19:37:22.794Z,2.87
2017-12-31T19:39:53.104Z,2.50
2017-12-31T19:42:23.541Z,2.70
2017-12-31T19:44:53.649Z,3.77
2017-12-31T19:47:23.984Z,2.50
2017-12-31T19:49:54.118Z,1.90
2017-12-31T19:52:25.215Z,2.50
2017-12-31T19:54:59.180Z,1.83
2017-12-31T19:57:33.469Z,1.67
2017-12-31T20:00:04.806Z,2.10
2017-12-31T20:02:35.139Z,3.00
2017-12-31T20:05:05.263Z,2.57
2017-12-31T20:07:35.756Z,2.60
2017-12-31T20:10:06.169Z,2.90
2017-12-31T20:12:36.958Z,2.10
2017-12-31T20:15:07.098Z,6.50
2017-12-31T20:17:37.634Z,3.20
2017-12-31T20:20:08.674Z,2.33
2017-12-31T20:22:39.736Z,2.17
2017-12-31T20:25:09.877Z,2.30
2017-12-31T20:27:40.147Z,2.70
2017-12-31T20:30:10.307Z,2.50
2017-12-31T20:32:41.201Z,2.03
2017-12-31T20:35:11.361Z,2.23
2017-12-31T20:37:41.455Z,2.20
2017-12-31T20:40:11.706Z,2.10
2017-12-31T20:42:42.081Z,1.90
2017-12-31T20:45:12.310Z,2.03
2017-12-31T20:47:42.889Z,2.10
2017-12-31T20:50:13.196Z,2.13
2017-12-31T20:52:43.681Z,2.40
2017-12-31T20:55:13.947Z,2.50
2017-12-31T20:57:46.005Z,2.80
2017-12-31T21:00:16.911Z,2.50
2017-12-31T21:02:48.126Z,2.70
2017-12-31T21:05:18.287Z,2.43
2017-12-31T21:07:48.862Z,2.73
2017-12-31T21:10:19.292Z,2.70
2017-12-31T21:12:50.205Z,2.30
2017-12-31T21:15:21.240Z,3.23
2017-12-31T21:17:52.273Z,3.40
2017-12-31T21:20:23.266Z,3.30
2017-12-31T21:22:53.740Z,3.47
2017-12-31T21:25:23.914Z,2.70
2017-12-31T21:27:54.162Z,4.40
2017-12-31T21:30:24.383Z,4.63
2017-12-31T21:32:55.383Z,3.47
2017-12-31T21:35:25.528Z,3.10
2017-12-31T21:37:56.243Z,2.90
2017-12-31T21:40:26.456Z,3.67
2017-12-31T21:42:56.605Z,3.57
2017-12-31T21:45:26.964Z,2.73
2017-12-31T21:47:57.155Z,2.03
2017-12-31T21:50:27.307Z,2.40
2017-12-31T21:52:57.763Z,2.80
2017-12-31T21:55:27.889Z,2.73
2017-12-31T21:57:58.024Z,2.40
2017-12-31T22:00:28.150Z,2.10
2017-12-31T22:02:58.357Z,2.50
2017-12-31T22:05:28.541Z,2.63
2017-12-31T22:07:59.859Z,2.97
2017-12-31T22:10:30.899Z,3.40
2017-12-31T22:13:01.078Z,3.07
2017-12-31T22:15:31.204Z,3.73
2017-12-31T22:18:02.064Z,3.43
2017-12-31T22:20:32.487Z,3.37
2017-12-31T22:23:03.555Z,8.47
2017-12-31T22:25:34.483Z,5.17
2017-12-31T22:28:04.643Z,3.30
2017-12-31T22:30:35.254Z,3.50
2017-12-31T22:33:06.204Z,3.37
2017-12-31T22:35:37.156Z,4.07
2017-12-31T22:38:08.366Z,4.07
2017-12-31T22:40:39.822Z,4.30
2017-12-31T22:43:10.119Z,4.43
2017-12-31T22:45:40.450Z,4.57
2017-12-31T22:48:12.112Z,3.80
2017-12-31T22:50:43.130Z,3.67
2017-12-31T22:53:13.984Z,3.43
2017-12-31T22:55:44.102Z,4.50
2017-12-31T22:58:14.788Z,5.80
2017-12-31T23:00:45.106Z,8.27
2017-12-31T23:03:15.617Z,20.77
2017-12-31T23:05:45.797Z,26.93
2017-12-31T23:08:15.941Z,53.33
2017-12-31T23:10:47.011Z,30.20
2017-12-31T23:13:17.194Z,39.33
2017-12-31T23:15:48.065Z,24.30
2017-12-31T23:18:18.795Z,34.17
2017-12-31T23:20:49.384Z,33.83
2017-12-31T23:23:20.685Z,38.07
2017-12-31T23:25:51.017Z,29.60
2017-12-31T23:28:21.335Z,29.27
2017-12-31T23:30:51.725Z,26.03
2017-12-31T23:33:23.066Z,23.53
2017-12-31T23:35:54.072Z,25.23
2017-12-31T23:38:24.563Z,18.10
2017-12-31T23:40:55.049Z,29.07
2017-12-31T23:43:26.285Z,20.30
2017-12-31T23:45:56.818Z,21.10
2017-12-31T23:48:27.239Z,16.60
2017-12-31T23:50:58.795Z,16.10
2017-12-31T23:53:29.406Z,22.27
2017-12-31T23:55:59.661Z,13.87
2017-12-31T23:58:29.908Z,14.00
